sensor_id;sensor_type;location;lat;lon;timestamp;P1;durP1;ratioP1;P2;durP2;ratioP2
69714;SDS011;56981;53.532;49.398;2023-03-19T00:00:18;2.15;;;1.02;;
69714;SDS011;56981;53.532;49.398;2023-03-19T00:02:44;1.73;;;1.25;;
69714;SDS011;56981;53.532;49.398;2023-03-19T00:05:15;0.90;;;0.65;;
69714;SDS011;56981;53.532;49.398;2023-03-19T00:07:42;2.45;;;1.10;;
69714;SDS011;56981;53.532;49.398;2023-03-19T00:10:09;1.73;;;1.02;;
69714;SDS011;56981;53.532;49.398;2023-03-19T00:12:36;1.63;;;1.13;;
69714;SDS011;56981;53.532;49.398;2023-03-19T00:15:02;2.75;;;0.77;;
69714;SDS011;56981;53.532;49.398;2023-03-19T00:17:28;1.30;;;0.70;;
69714;SDS011;56981;53.532;49.398;2023-03-19T00:19:55;1.50;;;0.90;;
69714;SDS011;56981;53.532;49.398;2023-03-19T00:22:21;3.13;;;1.20;;
69714;SDS011;56981;53.532;49.398;2023-03-19T00:24:47;1.45;;;0.82;;
69714;SDS011;56981;53.532;49.398;2023-03-19T00:27:14;2.83;;;1.20;;
69714;SDS011;56981;53.532;49.398;2023-03-19T00:29:43;1.08;;;0.82;;
69714;SDS011;56981;53.532;49.398;2023-03-19T00:32:12;1.08;;;0.70;;
69714;SDS011;56981;53.532;49.398;2023-03-19T00:34:39;2.50;;;0.43;;
69714;SDS011;56981;53.532;49.398;2023-03-19T00:37:05;1.63;;;0.50;;
69714;SDS011;56981;53.532;49.398;2023-03-19T00:39:32;1.23;;;0.90;;
69714;SDS011;56981;53.532;49.398;2023-03-19T00:41:58;1.15;;;0.73;;
69714;SDS011;56981;53.532;49.398;2023-03-19T00:44:24;3.85;;;1.25;;
69714;SDS011;56981;53.532;49.398;2023-03-19T00:46:50;1.88;;;1.40;;
69714;SDS011;56981;53.532;49.398;2023-03-19T00:49:16;1.88;;;1.20;;
69714;SDS011;56981;53.532;49.398;2023-03-19T00:51:43;2.95;;;1.45;;
69714;SDS011;56981;53.532;49.398;2023-03-19T00:54:10;5.65;;;3.00;;
69714;SDS011;56981;53.532;49.398;2023-03-19T00:56:37;7.78;;;3.28;;
69714;SDS011;56981;53.532;49.398;2023-03-19T00:59:03;6.88;;;2.97;;
69714;SDS011;56981;53.532;49.398;2023-03-19T01:01:30;5.03;;;2.40;;
69714;SDS011;56981;53.532;49.398;2023-03-19T01:03:56;3.85;;;1.92;;
69714;SDS011;56981;53.532;49.398;2023-03-19T01:06:22;4.75;;;2.25;;
69714;SDS011;56981;53.532;49.398;2023-03-19T01:08:49;3.35;;;1.98;;
69714;SDS011;56981;53.532;49.398;2023-03-19T01:11:15;11.38;;;3.38;;
69714;SDS011;56981;53.532;49.398;2023-03-19T01:13:43;5.60;;;2.75;;
69714;SDS011;56981;53.532;49.398;2023-03-19T01:16:09;6.57;;;2.88;;
69714;SDS011;56981;53.532;49.398;2023-03-19T01:18:36;1.50;;;1.02;;
69714;SDS011;56981;53.532;49.398;2023-03-19T01:21:02;4.28;;;1.83;;
69714;SDS011;56981;53.532;49.398;2023-03-19T01:23:29;5.47;;;2.22;;
69714;SDS011;56981;53.532;49.398;2023-03-19T01:25:56;6.40;;;2.30;;
69714;SDS011;56981;53.532;49.398;2023-03-19T01:28:22;6.80;;;2.83;;
69714;SDS011;56981;53.532;49.398;2023-03-19T01:30:49;4.70;;;2.55;;
69714;SDS011;56981;53.532;49.398;2023-03-19T01:33:15;3.83;;;2.25;;
69714;SDS011;56981;53.532;49.398;2023-03-19T01:35:44;8.25;;;3.30;;
69714;SDS011;56981;53.532;49.398;2023-03-19T01:38:12;6.45;;;2.33;;
69714;SDS011;56981;53.532;49.398;2023-03-19T01:40:42;3.55;;;1.40;;
69714;SDS011;56981;53.532;49.398;2023-03-19T01:43:17;2.75;;;1.58;;
69714;SDS011;56981;53.532;49.398;2023-03-19T01:45:46;4.57;;;2.10;;
69714;SDS011;56981;53.532;49.398;2023-03-19T01:50:47;2.38;;;1.40;;
69714;SDS011;56981;53.532;49.398;2023-03-19T01:53:18;1.67;;;0.95;;
69714;SDS011;56981;53.532;49.398;2023-03-19T01:55:48;2.25;;;0.88;;
69714;SDS011;56981;53.532;49.398;2023-03-19T01:58:15;1.02;;;0.80;;
69714;SDS011;56981;53.532;49.398;2023-03-19T02:00:41;0.75;;;0.50;;
69714;SDS011;56981;53.532;49.398;2023-03-19T02:03:07;1.27;;;0.80;;
69714;SDS011;56981;53.532;49.398;2023-03-19T02:05:35;1.38;;;1.00;;
69714;SDS011;56981;53.532;49.398;2023-03-19T02:08:04;3.40;;;1.38;;
69714;SDS011;56981;53.532;49.398;2023-03-19T02:10:32;5.40;;;1.40;;
69714;SDS011;56981;53.532;49.398;2023-03-19T02:12:59;0.50;;;0.50;;
69714;SDS011;56981;53.532;49.398;2023-03-19T02:15:25;3.17;;;1.13;;
69714;SDS011;56981;53.532;49.398;2023-03-19T02:17:51;3.47;;;0.93;;
69714;SDS011;56981;53.532;49.398;2023-03-19T02:20:40;1.05;;;0.75;;
69714;SDS011;56981;53.532;49.398;2023-03-19T02:26:14;2.10;;;1.13;;
69714;SDS011;56981;53.532;49.398;2023-03-19T02:28:44;4.38;;;1.20;;
69714;SDS011;56981;53.532;49.398;2023-03-19T02:31:12;4.10;;;1.65;;
69714;SDS011;56981;53.532;49.398;2023-03-19T02:33:39;2.05;;;1.40;;
69714;SDS011;56981;53.532;49.398;2023-03-19T02:36:08;2.20;;;0.73;;
69714;SDS011;56981;53.532;49.398;2023-03-19T02:38:42;1.83;;;0.98;;
69714;SDS011;56981;53.532;49.398;2023-03-19T02:41:10;3.08;;;1.65;;
69714;SDS011;56981;53.532;49.398;2023-03-19T02:43:39;2.67;;;1.58;;
69714;SDS011;56981;53.532;49.398;2023-03-19T02:46:08;3.05;;;0.98;;
69714;SDS011;56981;53.532;49.398;2023-03-19T02:48:37;5.13;;;1.58;;
69714;SDS011;56981;53.532;49.398;2023-03-19T02:51:04;2.42;;;1.25;;
69714;SDS011;56981;53.532;49.398;2023-03-19T02:53:31;2.72;;;1.00;;
69714;SDS011;56981;53.532;49.398;2023-03-19T02:55:59;1.70;;;0.70;;
69714;SDS011;56981;53.532;49.398;2023-03-19T02:58:25;3.58;;;1.00;;
69714;SDS011;56981;53.532;49.398;2023-03-19T03:00:51;3.47;;;1.63;;
69714;SDS011;56981;53.532;49.398;2023-03-19T03:03:18;2.95;;;1.52;;
69714;SDS011;56981;53.532;49.398;2023-03-19T03:05:44;5.40;;;1.23;;
69714;SDS011;56981;53.532;49.398;2023-03-19T03:08:10;2.72;;;1.27;;
69714;SDS011;56981;53.532;49.398;2023-03-19T03:10:37;4.63;;;1.05;;
69714;SDS011;56981;53.532;49.398;2023-03-19T03:13:03;5.68;;;2.35;;
69714;SDS011;56981;53.532;49.398;2023-03-19T03:15:30;4.20;;;1.85;;
69714;SDS011;56981;53.532;49.398;2023-03-19T03:17:56;2.10;;;1.20;;
69714;SDS011;56981;53.532;49.398;2023-03-19T03:20:22;2.60;;;1.27;;
69714;SDS011;56981;53.532;49.398;2023-03-19T03:22:49;3.65;;;1.88;;
69714;SDS011;56981;53.532;49.398;2023-03-19T03:25:16;2.50;;;1.08;;
69714;SDS011;56981;53.532;49.398;2023-03-19T03:27:42;7.05;;;2.10;;
69714;SDS011;56981;53.532;49.398;2023-03-19T03:30:09;5.68;;;2.28;;
69714;SDS011;56981;53.532;49.398;2023-03-19T03:32:35;5.68;;;2.45;;
69714;SDS011;56981;53.532;49.398;2023-03-19T03:35:03;4.38;;;1.90;;
69714;SDS011;56981;53.532;49.398;2023-03-19T03:37:31;4.47;;;1.90;;
69714;SDS011;56981;53.532;49.398;2023-03-19T03:39:57;2.28;;;1.55;;
69714;SDS011;56981;53.532;49.398;2023-03-19T03:42:24;2.50;;;1.35;;
69714;SDS011;56981;53.532;49.398;2023-03-19T03:44:50;5.10;;;1.85;;
69714;SDS011;56981;53.532;49.398;2023-03-19T03:47:16;3.00;;;1.40;;
69714;SDS011;56981;53.532;49.398;2023-03-19T03:49:43;2.25;;;1.15;;
69714;SDS011;56981;53.532;49.398;2023-03-19T03:52:09;1.85;;;0.73;;
69714;SDS011;56981;53.532;49.398;2023-03-19T03:54:35;2.83;;;1.30;;
69714;SDS011;56981;53.532;49.398;2023-03-19T03:57:02;2.88;;;1.13;;
69714;SDS011;56981;53.532;49.398;2023-03-19T03:59:28;3.40;;;1.42;;
69714;SDS011;56981;53.532;49.398;2023-03-19T04:01:54;0.95;;;0.50;;
69714;SDS011;56981;53.532;49.398;2023-03-19T04:04:20;2.55;;;1.05;;
69714;SDS011;56981;53.532;49.398;2023-03-19T04:06:47;2.85;;;1.10;;
69714;SDS011;56981;53.532;49.398;2023-03-19T04:09:13;1.85;;;1.30;;
69714;SDS011;56981;53.532;49.398;2023-03-19T04:11:40;2.97;;;1.00;;
69714;SDS011;56981;53.532;49.398;2023-03-19T04:14:06;2.80;;;1.67;;
69714;SDS011;56981;53.532;49.398;2023-03-19T04:16:33;1.35;;;0.90;;
69714;SDS011;56981;53.532;49.398;2023-03-19T04:18:59;1.70;;;0.60;;
69714;SDS011;56981;53.532;49.398;2023-03-19T04:21:26;1.75;;;0.95;;
69714;SDS011;56981;53.532;49.398;2023-03-19T04:23:53;0.98;;;0.90;;
69714;SDS011;56981;53.532;49.398;2023-03-19T04:26:19;1.67;;;1.08;;
69714;SDS011;56981;53.532;49.398;2023-03-19T04:28:46;4.65;;;1.73;;
69714;SDS011;56981;53.532;49.398;2023-03-19T04:31:12;3.17;;;1.48;;
69714;SDS011;56981;53.532;49.398;2023-03-19T04:33:38;5.65;;;2.05;;
69714;SDS011;56981;53.532;49.398;2023-03-19T04:36:04;3.60;;;1.67;;
69714;SDS011;56981;53.532;49.398;2023-03-19T04:38:31;4.70;;;1.70;;
69714;SDS011;56981;53.532;49.398;2023-03-19T04:40:58;1.73;;;0.65;;
69714;SDS011;56981;53.532;49.398;2023-03-19T04:43:26;5.28;;;1.95;;
69714;SDS011;56981;53.532;49.398;2023-03-19T04:45:53;4.13;;;1.25;;
69714;SDS011;56981;53.532;49.398;2023-03-19T04:48:19;1.88;;;0.82;;
69714;SDS011;56981;53.532;49.398;2023-03-19T04:50:46;6.10;;;1.92;;
69714;SDS011;56981;53.532;49.398;2023-03-19T04:53:16;1.30;;;1.00;;
69714;SDS011;56981;53.532;49.398;2023-03-19T04:55:43;2.72;;;0.93;;
69714;SDS011;56981;53.532;49.398;2023-03-19T04:58:10;3.17;;;1.30;;
69714;SDS011;56981;53.532;49.398;2023-03-19T05:00:36;1.73;;;1.10;;
69714;SDS011;56981;53.532;49.398;2023-03-19T05:03:02;2.78;;;1.50;;
69714;SDS011;56981;53.532;49.398;2023-03-19T05:05:29;2.45;;;1.33;;
69714;SDS011;56981;53.532;49.398;2023-03-19T05:07:55;4.88;;;1.92;;
69714;SDS011;56981;53.532;49.398;2023-03-19T05:10:21;5.53;;;1.70;;
69714;SDS011;56981;53.532;49.398;2023-03-19T05:12:48;3.65;;;1.60;;
69714;SDS011;56981;53.532;49.398;2023-03-19T05:15:14;4.40;;;1.95;;
69714;SDS011;56981;53.532;49.398;2023-03-19T05:17:41;3.72;;;2.28;;
69714;SDS011;56981;53.532;49.398;2023-03-19T05:20:08;2.85;;;1.35;;
69714;SDS011;56981;53.532;49.398;2023-03-19T05:22:36;2.38;;;1.60;;
69714;SDS011;56981;53.532;49.398;2023-03-19T05:25:02;3.35;;;1.73;;
69714;SDS011;56981;53.532;49.398;2023-03-19T05:27:29;3.28;;;1.40;;
69714;SDS011;56981;53.532;49.398;2023-03-19T05:29:56;3.58;;;1.80;;
69714;SDS011;56981;53.532;49.398;2023-03-19T05:32:22;8.70;;;3.92;;
69714;SDS011;56981;53.532;49.398;2023-03-19T05:34:48;4.75;;;2.10;;
69714;SDS011;56981;53.532;49.398;2023-03-19T05:37:14;3.10;;;2.20;;
69714;SDS011;56981;53.532;49.398;2023-03-19T05:39:42;6.60;;;2.55;;
69714;SDS011;56981;53.532;49.398;2023-03-19T05:42:08;3.45;;;1.90;;
69714;SDS011;56981;53.532;49.398;2023-03-19T05:44:34;2.67;;;1.77;;
69714;SDS011;56981;53.532;49.398;2023-03-19T05:47:01;5.78;;;2.45;;
69714;SDS011;56981;53.532;49.398;2023-03-19T05:49:27;4.03;;;1.80;;
69714;SDS011;56981;53.532;49.398;2023-03-19T05:51:53;3.47;;;2.38;;
69714;SDS011;56981;53.532;49.398;2023-03-19T05:54:20;4.90;;;2.55;;
69714;SDS011;56981;53.532;49.398;2023-03-19T05:56:46;5.43;;;2.55;;
69714;SDS011;56981;53.532;49.398;2023-03-19T05:59:12;4.47;;;1.98;;
69714;SDS011;56981;53.532;49.398;2023-03-19T06:01:39;4.85;;;2.22;;
69714;SDS011;56981;53.532;49.398;2023-03-19T06:04:10;6.93;;;2.53;;
69714;SDS011;56981;53.532;49.398;2023-03-19T06:06:36;4.07;;;2.42;;
69714;SDS011;56981;53.532;49.398;2023-03-19T06:09:02;4.25;;;2.30;;
69714;SDS011;56981;53.532;49.398;2023-03-19T06:11:29;3.42;;;1.80;;
69714;SDS011;56981;53.532;49.398;2023-03-19T06:13:56;4.45;;;2.40;;
69714;SDS011;56981;53.532;49.398;2023-03-19T06:16:22;3.47;;;2.00;;
69714;SDS011;56981;53.532;49.398;2023-03-19T06:18:48;4.68;;;2.70;;
69714;SDS011;56981;53.532;49.398;2023-03-19T06:21:14;3.15;;;1.73;;
69714;SDS011;56981;53.532;49.398;2023-03-19T06:27:25;6.90;;;4.70;;
69714;SDS011;56981;53.532;49.398;2023-03-19T06:29:51;5.85;;;2.10;;
69714;SDS011;56981;53.532;49.398;2023-03-19T06:32:17;4.28;;;2.45;;
69714;SDS011;56981;53.532;49.398;2023-03-19T06:34:43;8.93;;;2.78;;
69714;SDS011;56981;53.532;49.398;2023-03-19T06:37:10;4.40;;;2.20;;
69714;SDS011;56981;53.532;49.398;2023-03-19T06:39:36;4.53;;;2.13;;
69714;SDS011;56981;53.532;49.398;2023-03-19T06:42:02;6.72;;;2.55;;
69714;SDS011;56981;53.532;49.398;2023-03-19T06:44:28;3.05;;;1.83;;
69714;SDS011;56981;53.532;49.398;2023-03-19T06:46:58;3.45;;;1.48;;
69714;SDS011;56981;53.532;49.398;2023-03-19T06:49:24;3.83;;;1.92;;
69714;SDS011;56981;53.532;49.398;2023-03-19T06:51:52;4.13;;;2.00;;
69714;SDS011;56981;53.532;49.398;2023-03-19T06:54:21;3.30;;;2.00;;
69714;SDS011;56981;53.532;49.398;2023-03-19T06:56:47;5.05;;;2.20;;
69714;SDS011;56981;53.532;49.398;2023-03-19T06:59:13;3.97;;;2.28;;
69714;SDS011;56981;53.532;49.398;2023-03-19T07:01:39;4.80;;;1.50;;
69714;SDS011;56981;53.532;49.398;2023-03-19T07:04:06;2.85;;;1.63;;
69714;SDS011;56981;53.532;49.398;2023-03-19T07:06:33;4.25;;;1.55;;
69714;SDS011;56981;53.532;49.398;2023-03-19T07:08:59;2.45;;;1.58;;
69714;SDS011;56981;53.532;49.398;2023-03-19T07:11:25;1.70;;;1.38;;
69714;SDS011;56981;53.532;49.398;2023-03-19T07:13:51;3.30;;;1.75;;
69714;SDS011;56981;53.532;49.398;2023-03-19T07:16:17;1.88;;;1.35;;
69714;SDS011;56981;53.532;49.398;2023-03-19T07:18:44;3.30;;;1.65;;
69714;SDS011;56981;53.532;49.398;2023-03-19T07:21:10;2.42;;;1.52;;
69714;SDS011;56981;53.532;49.398;2023-03-19T07:23:36;2.80;;;1.70;;
69714;SDS011;56981;53.532;49.398;2023-03-19T07:26:02;2.50;;;1.45;;
69714;SDS011;56981;53.532;49.398;2023-03-19T07:28:28;3.65;;;1.98;;
69714;SDS011;56981;53.532;49.398;2023-03-19T07:30:54;2.10;;;1.92;;
69714;SDS011;56981;53.532;49.398;2023-03-19T07:33:25;3.40;;;1.73;;
69714;SDS011;56981;53.532;49.398;2023-03-19T07:35:51;3.97;;;2.40;;
69714;SDS011;56981;53.532;49.398;2023-03-19T07:38:17;3.67;;;2.30;;
69714;SDS011;56981;53.532;49.398;2023-03-19T07:40:43;3.95;;;2.30;;
69714;SDS011;56981;53.532;49.398;2023-03-19T07:43:09;1.90;;;1.73;;
69714;SDS011;56981;53.532;49.398;2023-03-19T07:45:35;5.30;;;2.72;;
69714;SDS011;56981;53.532;49.398;2023-03-19T07:48:01;2.75;;;1.92;;
69714;SDS011;56981;53.532;49.398;2023-03-19T07:50:30;2.30;;;1.73;;
69714;SDS011;56981;53.532;49.398;2023-03-19T07:52:57;2.83;;;1.98;;
69714;SDS011;56981;53.532;49.398;2023-03-19T07:55:23;6.90;;;2.40;;
69714;SDS011;56981;53.532;49.398;2023-03-19T07:57:50;3.72;;;2.10;;
69714;SDS011;56981;53.532;49.398;2023-03-19T08:00:16;5.30;;;1.90;;
69714;SDS011;56981;53.532;49.398;2023-03-19T08:02:43;3.25;;;2.17;;
69714;SDS011;56981;53.532;49.398;2023-03-19T08:05:09;3.42;;;2.30;;
69714;SDS011;56981;53.532;49.398;2023-03-19T08:07:36;2.67;;;1.70;;
69714;SDS011;56981;53.532;49.398;2023-03-19T08:10:02;2.50;;;2.08;;
69714;SDS011;56981;53.532;49.398;2023-03-19T08:12:29;3.05;;;2.10;;
69714;SDS011;56981;53.532;49.398;2023-03-19T08:14:56;4.38;;;2.35;;
69714;SDS011;56981;53.532;49.398;2023-03-19T08:17:22;3.15;;;2.20;;
69714;SDS011;56981;53.532;49.398;2023-03-19T08:19:49;2.53;;;2.03;;
69714;SDS011;56981;53.532;49.398;2023-03-19T08:22:32;2.38;;;1.70;;
69714;SDS011;56981;53.532;49.398;2023-03-19T08:25:00;4.00;;;2.05;;
69714;SDS011;56981;53.532;49.398;2023-03-19T08:27:26;3.08;;;1.85;;
69714;SDS011;56981;53.532;49.398;2023-03-19T08:29:54;3.70;;;2.30;;
69714;SDS011;56981;53.532;49.398;2023-03-19T08:32:21;5.28;;;2.20;;
69714;SDS011;56981;53.532;49.398;2023-03-19T08:34:47;4.78;;;2.10;;
69714;SDS011;56981;53.532;49.398;2023-03-19T08:37:13;4.80;;;2.33;;
69714;SDS011;56981;53.532;49.398;2023-03-19T08:39:39;4.07;;;2.45;;
69714;SDS011;56981;53.532;49.398;2023-03-19T08:42:05;3.03;;;2.00;;
69714;SDS011;56981;53.532;49.398;2023-03-19T08:44:32;9.68;;;3.83;;
69714;SDS011;56981;53.532;49.398;2023-03-19T08:46:58;7.82;;;3.42;;
69714;SDS011;56981;53.532;49.398;2023-03-19T08:49:23;4.60;;;2.38;;
69714;SDS011;56981;53.532;49.398;2023-03-19T08:51:50;7.60;;;3.80;;
69714;SDS011;56981;53.532;49.398;2023-03-19T08:54:16;5.90;;;2.75;;
69714;SDS011;56981;53.532;49.398;2023-03-19T08:56:42;4.47;;;2.70;;
69714;SDS011;56981;53.532;49.398;2023-03-19T08:59:08;4.38;;;1.83;;
69714;SDS011;56981;53.532;49.398;2023-03-19T09:01:37;5.57;;;2.97;;
69714;SDS011;56981;53.532;49.398;2023-03-19T09:04:03;4.18;;;2.72;;
69714;SDS011;56981;53.532;49.398;2023-03-19T09:06:29;5.03;;;3.03;;
69714;SDS011;56981;53.532;49.398;2023-03-19T09:08:55;4.88;;;2.78;;
69714;SDS011;56981;53.532;49.398;2023-03-19T09:11:21;5.13;;;2.83;;
69714;SDS011;56981;53.532;49.398;2023-03-19T09:13:47;4.00;;;2.58;;
69714;SDS011;56981;53.532;49.398;2023-03-19T09:16:14;5.68;;;2.72;;
69714;SDS011;56981;53.532;49.398;2023-03-19T09:18:40;3.92;;;2.10;;
69714;SDS011;56981;53.532;49.398;2023-03-19T09:21:06;4.47;;;2.47;;
69714;SDS011;56981;53.532;49.398;2023-03-19T09:23:33;4.60;;;2.95;;
69714;SDS011;56981;53.532;49.398;2023-03-19T09:25:59;4.43;;;2.55;;
69714;SDS011;56981;53.532;49.398;2023-03-19T09:28:25;5.60;;;2.95;;
69714;SDS011;56981;53.532;49.398;2023-03-19T09:30:51;6.93;;;4.38;;
69714;SDS011;56981;53.532;49.398;2023-03-19T09:33:18;8.57;;;4.32;;
69714;SDS011;56981;53.532;49.398;2023-03-19T09:35:48;6.72;;;3.15;;
69714;SDS011;56981;53.532;49.398;2023-03-19T09:38:17;10.15;;;3.83;;
69714;SDS011;56981;53.532;49.398;2023-03-19T09:40:47;7.68;;;4.20;;
69714;SDS011;56981;53.532;49.398;2023-03-19T09:46:05;9.95;;;4.82;;
69714;SDS011;56981;53.532;49.398;2023-03-19T09:48:39;8.40;;;4.38;;
69714;SDS011;56981;53.532;49.398;2023-03-19T09:51:17;6.45;;;2.80;;
69714;SDS011;56981;53.532;49.398;2023-03-19T09:53:53;6.65;;;3.38;;
69714;SDS011;56981;53.532;49.398;2023-03-19T09:56:26;7.43;;;3.00;;
69714;SDS011;56981;53.532;49.398;2023-03-19T09:58:52;5.70;;;3.08;;
69714;SDS011;56981;53.532;49.398;2023-03-19T10:01:22;6.05;;;2.63;;
69714;SDS011;56981;53.532;49.398;2023-03-19T10:06:52;3.70;;;2.03;;
69714;SDS011;56981;53.532;49.398;2023-03-19T10:12:23;6.38;;;2.50;;
69714;SDS011;56981;53.532;49.398;2023-03-19T10:22:56;3.40;;;2.13;;
69714;SDS011;56981;53.532;49.398;2023-03-19T10:25:53;3.40;;;2.58;;
69714;SDS011;56981;53.532;49.398;2023-03-19T10:28:21;3.75;;;2.10;;
69714;SDS011;56981;53.532;49.398;2023-03-19T10:31:00;4.30;;;2.08;;
69714;SDS011;56981;53.532;49.398;2023-03-19T10:33:50;3.45;;;1.70;;
69714;SDS011;56981;53.532;49.398;2023-03-19T10:36:33;4.90;;;2.47;;
69714;SDS011;56981;53.532;49.398;2023-03-19T10:39:00;6.75;;;2.88;;
69714;SDS011;56981;53.532;49.398;2023-03-19T10:44:29;4.50;;;2.60;;
69714;SDS011;56981;53.532;49.398;2023-03-19T10:46:57;2.78;;;1.63;;
69714;SDS011;56981;53.532;49.398;2023-03-19T10:49:24;6.28;;;2.30;;
69714;SDS011;56981;53.532;49.398;2023-03-19T10:51:51;2.20;;;1.27;;
69714;SDS011;56981;53.532;49.398;2023-03-19T10:54:19;6.35;;;2.58;;
69714;SDS011;56981;53.532;49.398;2023-03-19T10:56:47;8.15;;;2.80;;
69714;SDS011;56981;53.532;49.398;2023-03-19T10:59:25;7.68;;;3.67;;
69714;SDS011;56981;53.532;49.398;2023-03-19T11:01:57;6.75;;;3.70;;
69714;SDS011;56981;53.532;49.398;2023-03-19T11:04:26;3.90;;;2.50;;
69714;SDS011;56981;53.532;49.398;2023-03-19T11:06:54;5.85;;;2.63;;
69714;SDS011;56981;53.532;49.398;2023-03-19T11:09:36;6.45;;;2.20;;
69714;SDS011;56981;53.532;49.398;2023-03-19T11:14:58;5.75;;;2.33;;
69714;SDS011;56981;53.532;49.398;2023-03-19T11:20:33;4.13;;;2.63;;
69714;SDS011;56981;53.532;49.398;2023-03-19T11:28:10;2.92;;;2.25;;
69714;SDS011;56981;53.532;49.398;2023-03-19T11:30:42;3.38;;;2.08;;
69714;SDS011;56981;53.532;49.398;2023-03-19T11:44:16;5.15;;;2.78;;
69714;SDS011;56981;53.532;49.398;2023-03-19T11:52:38;2.90;;;2.40;;
69714;SDS011;56981;53.532;49.398;2023-03-19T11:57:23;6.93;;;2.30;;
69714;SDS011;56981;53.532;49.398;2023-03-19T12:05:31;5.07;;;3.28;;
69714;SDS011;56981;53.532;49.398;2023-03-19T12:11:06;4.60;;;3.17;;
69714;SDS011;56981;53.532;49.398;2023-03-19T12:24:10;4.85;;;3.17;;
69714;SDS011;56981;53.532;49.398;2023-03-19T12:34:58;9.02;;;4.25;;
69714;SDS011;56981;53.532;49.398;2023-03-19T12:42:46;7.18;;;4.65;;
69714;SDS011;56981;53.532;49.398;2023-03-19T12:45:22;7.25;;;4.47;;
69714;SDS011;56981;53.532;49.398;2023-03-19T12:48:17;8.05;;;5.03;;
69714;SDS011;56981;53.532;49.398;2023-03-19T12:51:16;13.52;;;5.88;;
69714;SDS011;56981;53.532;49.398;2023-03-19T12:53:48;8.13;;;4.97;;
69714;SDS011;56981;53.532;49.398;2023-03-19T12:59:12;9.10;;;5.60;;
69714;SDS011;56981;53.532;49.398;2023-03-19T13:01:52;11.10;;;6.82;;
69714;SDS011;56981;53.532;49.398;2023-03-19T13:04:54;9.52;;;6.22;;
69714;SDS011;56981;53.532;49.398;2023-03-19T13:07:29;6.68;;;4.03;;
69714;SDS011;56981;53.532;49.398;2023-03-19T13:10:10;10.05;;;5.85;;
69714;SDS011;56981;53.532;49.398;2023-03-19T13:12:41;12.25;;;5.25;;
69714;SDS011;56981;53.532;49.398;2023-03-19T13:15:27;10.48;;;5.45;;
69714;SDS011;56981;53.532;49.398;2023-03-19T13:23:39;11.05;;;6.90;;
69714;SDS011;56981;53.532;49.398;2023-03-19T13:28:37;10.25;;;6.43;;
69714;SDS011;56981;53.532;49.398;2023-03-19T13:31:25;11.60;;;6.13;;
69714;SDS011;56981;53.532;49.398;2023-03-19T13:34:02;14.00;;;7.05;;
69714;SDS011;56981;53.532;49.398;2023-03-19T13:36:43;9.23;;;5.70;;
69714;SDS011;56981;53.532;49.398;2023-03-19T13:39:24;17.15;;;7.90;;
69714;SDS011;56981;53.532;49.398;2023-03-19T13:57:56;18.42;;;9.02;;
69714;SDS011;56981;53.532;49.398;2023-03-19T14:03:21;20.02;;;10.00;;
69714;SDS011;56981;53.532;49.398;2023-03-19T14:05:50;18.58;;;9.07;;
69714;SDS011;56981;53.532;49.398;2023-03-19T14:08:22;15.27;;;8.48;;
69714;SDS011;56981;53.532;49.398;2023-03-19T14:10:58;19.35;;;10.20;;
69714;SDS011;56981;53.532;49.398;2023-03-19T14:13:30;16.77;;;7.55;;
69714;SDS011;56981;53.532;49.398;2023-03-19T14:16:06;18.27;;;10.25;;
69714;SDS011;56981;53.532;49.398;2023-03-19T14:18:41;13.27;;;8.15;;
69714;SDS011;56981;53.532;49.398;2023-03-19T14:21:10;18.10;;;9.07;;
69714;SDS011;56981;53.532;49.398;2023-03-19T14:23:50;20.17;;;10.18;;
69714;SDS011;56981;53.532;49.398;2023-03-19T14:26:19;18.92;;;9.43;;
69714;SDS011;56981;53.532;49.398;2023-03-19T14:28:52;18.40;;;10.25;;
69714;SDS011;56981;53.532;49.398;2023-03-19T14:34:02;16.67;;;8.93;;
69714;SDS011;56981;53.532;49.398;2023-03-19T14:36:34;17.60;;;10.55;;
69714;SDS011;56981;53.532;49.398;2023-03-19T14:39:07;23.60;;;11.05;;
69714;SDS011;56981;53.532;49.398;2023-03-19T14:41:42;19.35;;;9.90;;
69714;SDS011;56981;53.532;49.398;2023-03-19T14:50:02;20.80;;;10.95;;
69714;SDS011;56981;53.532;49.398;2023-03-19T14:52:53;18.25;;;8.70;;
69714;SDS011;56981;53.532;49.398;2023-03-19T14:55:41;26.00;;;10.80;;
69714;SDS011;56981;53.532;49.398;2023-03-19T14:58:13;18.80;;;9.48;;
69714;SDS011;56981;53.532;49.398;2023-03-19T15:00:50;23.27;;;11.35;;
69714;SDS011;56981;53.532;49.398;2023-03-19T15:03:32;25.20;;;13.20;;
69714;SDS011;56981;53.532;49.398;2023-03-19T15:06:02;30.20;;;13.75;;
69714;SDS011;56981;53.532;49.398;2023-03-19T15:08:30;69.53;;;24.65;;
69714;SDS011;56981;53.532;49.398;2023-03-19T15:19:25;17.70;;;9.95;;
69714;SDS011;56981;53.532;49.398;2023-03-19T15:22:02;14.88;;;9.50;;
69714;SDS011;56981;53.532;49.398;2023-03-19T15:24:40;11.15;;;6.45;;
69714;SDS011;56981;53.532;49.398;2023-03-19T15:29:42;17.30;;;10.73;;
69714;SDS011;56981;53.532;49.398;2023-03-19T15:32:08;16.10;;;9.57;;
69714;SDS011;56981;53.532;49.398;2023-03-19T15:34:34;16.42;;;9.50;;
69714;SDS011;56981;53.532;49.398;2023-03-19T15:37:11;14.60;;;9.23;;
69714;SDS011;56981;53.532;49.398;2023-03-19T15:39:41;15.15;;;9.68;;
69714;SDS011;56981;53.532;49.398;2023-03-19T15:42:12;20.75;;;10.43;;
69714;SDS011;56981;53.532;49.398;2023-03-19T15:44:42;18.13;;;7.93;;
69714;SDS011;56981;53.532;49.398;2023-03-19T15:47:23;22.63;;;11.10;;
69714;SDS011;56981;53.532;49.398;2023-03-19T15:49:58;13.32;;;8.23;;
69714;SDS011;56981;53.532;49.398;2023-03-19T15:52:32;15.75;;;9.82;;
69714;SDS011;56981;53.532;49.398;2023-03-19T15:55:03;15.50;;;8.45;;
69714;SDS011;56981;53.532;49.398;2023-03-19T15:57:31;15.30;;;8.45;;
69714;SDS011;56981;53.532;49.398;2023-03-19T15:59:59;16.15;;;8.90;;
69714;SDS011;56981;53.532;49.398;2023-03-19T16:02:29;18.08;;;9.52;;
69714;SDS011;56981;53.532;49.398;2023-03-19T16:07:31;18.60;;;10.20;;
69714;SDS011;56981;53.532;49.398;2023-03-19T16:10:29;19.83;;;11.27;;
69714;SDS011;56981;53.532;49.398;2023-03-19T16:12:58;16.30;;;10.00;;
69714;SDS011;56981;53.532;49.398;2023-03-19T16:15:42;13.30;;;8.30;;
69714;SDS011;56981;53.532;49.398;2023-03-19T16:20:57;11.98;;;7.40;;
69714;SDS011;56981;53.532;49.398;2023-03-19T16:23:27;12.68;;;8.05;;
69714;SDS011;56981;53.532;49.398;2023-03-19T16:26:13;9.32;;;6.20;;
69714;SDS011;56981;53.532;49.398;2023-03-19T16:28:45;14.02;;;7.10;;
69714;SDS011;56981;53.532;49.398;2023-03-19T16:31:23;13.30;;;7.63;;
69714;SDS011;56981;53.532;49.398;2023-03-19T16:33:53;11.85;;;7.15;;
69714;SDS011;56981;53.532;49.398;2023-03-19T16:36:21;13.98;;;6.60;;
69714;SDS011;56981;53.532;49.398;2023-03-19T16:38:53;10.73;;;6.60;;
69714;SDS011;56981;53.532;49.398;2023-03-19T16:41:25;12.95;;;6.85;;
69714;SDS011;56981;53.532;49.398;2023-03-19T16:43:59;11.77;;;6.70;;
69714;SDS011;56981;53.532;49.398;2023-03-19T16:46:37;11.38;;;6.13;;
69714;SDS011;56981;53.532;49.398;2023-03-19T16:49:03;16.67;;;9.32;;
69714;SDS011;56981;53.532;49.398;2023-03-19T16:51:29;35.90;;;15.50;;
69714;SDS011;56981;53.532;49.398;2023-03-19T16:53:56;14.18;;;8.02;;
69714;SDS011;56981;53.532;49.398;2023-03-19T16:56:22;14.48;;;8.23;;
69714;SDS011;56981;53.532;49.398;2023-03-19T16:58:48;10.15;;;6.72;;
69714;SDS011;56981;53.532;49.398;2023-03-19T17:01:15;15.52;;;8.77;;
69714;SDS011;56981;53.532;49.398;2023-03-19T17:03:44;11.27;;;7.80;;
69714;SDS011;56981;53.532;49.398;2023-03-19T17:06:11;10.25;;;6.93;;
69714;SDS011;56981;53.532;49.398;2023-03-19T17:08:39;11.18;;;6.30;;